sensor_id;sensor_type;location;lat;lon;timestamp;pressure;altitude;pressure_sealevel;temperature;humidity
57192;BME280;43052;52.588;13.396;2023-03-20T00:02:20;101150.25;;;10.82;70.75
57192;BME280;43052;52.588;13.396;2023-03-20T00:04:46;101142.41;;;10.78;70.64
57192;BME280;43052;52.588;13.396;2023-03-20T00:07:11;101138.88;;;10.73;70.86
57192;BME280;43052;52.588;13.396;2023-03-20T00:09:37;101144.13;;;10.70;70.85
57192;BME280;43052;52.588;13.396;2023-03-20T00:12:02;101140.66;;;10.68;70.85
57192;BME280;43052;52.588;13.396;2023-03-20T00:14:28;101145.00;;;10.69;70.81
57192;BME280;43052;52.588;13.396;2023-03-20T00:16:53;101145.00;;;10.69;70.97
57192;BME280;43052;52.588;13.396;2023-03-20T00:19:19;101143.25;;;10.68;70.75
57192;BME280;43052;52.588;13.396;2023-03-20T00:21:45;101145.00;;;10.62;70.70
57192;BME280;43052;52.588;13.396;2023-03-20T00:24:12;101141.50;;;10.57;70.91
57192;BME280;43052;52.588;13.396;2023-03-20T00:26:38;101138.00;;;10.44;71.03
57192;BME280;43052;52.588;13.396;2023-03-20T00:29:05;101144.06;;;10.32;71.23
57192;BME280;43052;52.588;13.396;2023-03-20T00:31:36;101140.56;;;10.15;71.11
57192;BME280;43052;52.588;13.396;2023-03-20T00:34:05;101135.31;;;10.04;71.28
57192;BME280;43052;52.588;13.396;2023-03-20T00:36:30;101140.50;;;9.90;71.30
57192;BME280;43052;52.588;13.396;2023-03-20T00:38:55;101134.31;;;9.76;71.50
57192;BME280;43052;52.588;13.396;2023-03-20T00:41:26;101141.25;;;9.61;71.66
57192;BME280;43052;52.588;13.396;2023-03-20T00:43:57;101135.06;;;9.44;71.98
57192;BME280;43052;52.588;13.396;2023-03-20T00:46:23;101123.69;;;9.31;72.23
57192;BME280;43052;52.588;13.396;2023-03-20T00:48:49;101134.06;;;9.23;72.54
57192;BME280;43052;52.588;13.396;2023-03-20T00:51:15;101132.28;;;9.14;72.52
57192;BME280;43052;52.588;13.396;2023-03-20T00:53:40;101133.94;;;9.03;72.77
57192;BME280;43052;52.588;13.396;2023-03-20T00:56:06;101125.19;;;8.93;72.77
57192;BME280;43052;52.588;13.396;2023-03-20T00:58:36;101128.59;;;8.81;72.88
57192;BME280;43052;52.588;13.396;2023-03-20T01:01:02;101118.94;;;8.72;73.35
57192;BME280;43052;52.588;13.396;2023-03-20T01:03:28;101131.94;;;8.68;73.37
57192;BME280;43052;52.588;13.396;2023-03-20T01:05:54;101126.66;;;8.57;73.64
57192;BME280;43052;52.588;13.396;2023-03-20T01:08:21;101125.63;;;8.45;73.79
57192;BME280;43052;52.588;13.396;2023-03-20T01:10:50;101119.47;;;8.36;74.11
57192;BME280;43052;52.588;13.396;2023-03-20T01:13:26;101128.13;;;8.30;74.41
57192;BME280;43052;52.588;13.396;2023-03-20T01:15:52;101133.28;;;8.25;74.36
57192;BME280;43052;52.588;13.396;2023-03-20T01:18:20;101130.63;;;8.19;74.45
57192;BME280;43052;52.588;13.396;2023-03-20T01:20:46;101133.13;;;8.13;74.71
57192;BME280;43052;52.588;13.396;2023-03-20T01:23:12;101128.72;;;8.07;74.64
57192;BME280;43052;52.588;13.396;2023-03-20T01:25:38;101138.19;;;7.99;74.94
57192;BME280;43052;52.588;13.396;2023-03-20T01:28:14;101139.00;;;7.92;75.03
57192;BME280;43052;52.588;13.396;2023-03-20T01:30:40;101133.78;;;7.89;75.10
57192;BME280;43052;52.588;13.396;2023-03-20T01:33:12;101129.31;;;7.80;75.33
57192;BME280;43052;52.588;13.396;2023-03-20T01:35:38;101141.44;;;7.78;75.49
57192;BME280;43052;52.588;13.396;2023-03-20T01:38:10;101139.66;;;7.75;75.35
57192;BME280;43052;52.588;13.396;2023-03-20T01:43:11;101131.69;;;7.63;75.75
57192;BME280;43052;52.588;13.396;2023-03-20T01:45:37;101131.69;;;7.63;76.02
57192;BME280;43052;52.588;13.396;2023-03-20T01:48:14;101130.03;;;7.66;76.19
57192;BME280;43052;52.588;13.396;2023-03-20T01:50:40;101138.75;;;7.73;76.37
57192;BME280;43052;52.588;13.396;2023-03-20T01:53:11;101135.47;;;7.87;76.39
57192;BME280;43052;52.588;13.396;2023-03-20T01:55:38;101136.50;;;8.03;76.71
57192;BME280;43052;52.588;13.396;2023-03-20T01:58:07;101144.47;;;8.16;76.81
57192;BME280;43052;52.588;13.396;2023-03-20T02:00:34;101144.59;;;8.29;76.64
57192;BME280;43052;52.588;13.396;2023-03-20T02:03:01;101146.44;;;8.39;77.01
57192;BME280;43052;52.588;13.396;2023-03-20T02:05:27;101145.66;;;8.48;77.12
57192;BME280;43052;52.588;13.396;2023-03-20T02:08:01;101155.31;;;8.57;77.12
57192;BME280;43052;52.588;13.396;2023-03-20T02:13:54;101152.03;;;8.76;76.97
57192;BME280;43052;52.588;13.396;2023-03-20T02:16:19;101150.28;;;8.78;76.82
57192;BME280;43052;52.588;13.396;2023-03-20T02:18:47;101154.63;;;8.76;76.84
57192;BME280;43052;52.588;13.396;2023-03-20T02:27:17;101134.56;;;8.66;76.74
57192;BME280;43052;52.588;13.396;2023-03-20T02:30:02;101136.31;;;8.67;76.72
57192;BME280;43052;52.588;13.396;2023-03-20T02:35:58;101132.84;;;8.71;76.73
57192;BME280;43052;52.588;13.396;2023-03-20T02:38:38;101143.31;;;8.74;76.49
57192;BME280;43052;52.588;13.396;2023-03-20T02:41:24;101147.63;;;8.74;76.25
57192;BME280;43052;52.588;13.396;2023-03-20T02:44:08;101141.53;;;8.69;76.33
57192;BME280;43052;52.588;13.396;2023-03-20T02:51:45;101143.41;;;8.88;76.28
57192;BME280;43052;52.588;13.396;2023-03-20T02:54:21;101146.06;;;8.93;76.40
57192;BME280;43052;52.588;13.396;2023-03-20T02:57:04;101154.78;;;9.00;76.27
57192;BME280;43052;52.588;13.396;2023-03-20T02:59:41;101154.81;;;9.01;76.03
57192;BME280;43052;52.588;13.396;2023-03-20T03:02:15;101153.97;;;9.02;76.12
57192;BME280;43052;52.588;13.396;2023-03-20T03:04:51;101150.50;;;9.08;76.07
57192;BME280;43052;52.588;13.396;2023-03-20T03:07:21;101140.97;;;9.13;76.22
57192;BME280;43052;52.588;13.396;2023-03-20T03:09:51;101138.38;;;9.15;76.17
57192;BME280;43052;52.588;13.396;2023-03-20T03:12:22;101141.03;;;9.21;76.42
57192;BME280;43052;52.588;13.396;2023-03-20T03:14:52;101141.94;;;9.26;76.22
57192;BME280;43052;52.588;13.396;2023-03-20T03:17:20;101142.81;;;9.30;76.17
57192;BME280;43052;52.588;13.396;2023-03-20T03:19:50;101152.44;;;9.38;75.97
57192;BME280;43052;52.588;13.396;2023-03-20T03:22:17;101147.25;;;9.43;75.97
57192;BME280;43052;52.588;13.396;2023-03-20T03:24:46;101153.38;;;9.47;75.87
57192;BME280;43052;52.588;13.396;2023-03-20T03:27:19;101154.22;;;9.49;75.92
57192;BME280;43052;52.588;13.396;2023-03-20T03:29:54;101158.59;;;9.48;75.95
57192;BME280;43052;52.588;13.396;2023-03-20T03:32:32;101160.31;;;9.48;75.77
57192;BME280;43052;52.588;13.396;2023-03-20T03:34:59;101151.63;;;9.47;76.14
57192;BME280;43052;52.588;13.396;2023-03-20T03:37:35;101155.97;;;9.47;76.07
57192;BME280;43052;52.588;13.396;2023-03-20T03:40:34;101152.50;;;9.49;76.01
57192;BME280;43052;52.588;13.396;2023-03-20T03:43:11;101158.59;;;9.54;75.98
57192;BME280;43052;52.588;13.396;2023-03-20T03:45:48;101152.53;;;9.57;75.90
57192;BME280;43052;52.588;13.396;2023-03-20T03:48:22;101156.03;;;9.59;75.92
57192;BME280;43052;52.588;13.396;2023-03-20T03:50:59;101152.53;;;9.60;75.72
57192;BME280;43052;52.588;13.396;2023-03-20T03:53:31;101154.28;;;9.60;75.44
57192;BME280;43052;52.588;13.396;2023-03-20T03:56:01;101155.09;;;9.52;75.32
57192;BME280;43052;52.588;13.396;2023-03-20T03:58:31;101149.84;;;9.48;75.75
57192;BME280;43052;52.588;13.396;2023-03-20T04:00:58;101147.25;;;9.48;76.04
57192;BME280;43052;52.588;13.396;2023-03-20T04:03:30;101149.00;;;9.49;75.79
57192;BME280;43052;52.588;13.396;2023-03-20T04:05:58;101154.22;;;9.49;75.96
57192;BME280;43052;52.588;13.396;2023-03-20T04:08:25;101160.31;;;9.45;75.73
57192;BME280;43052;52.588;13.396;2023-03-20T04:10:50;101163.75;;;9.40;75.87
57192;BME280;43052;52.588;13.396;2023-03-20T04:13:16;101162.84;;;9.37;76.34
57192;BME280;43052;52.588;13.396;2023-03-20T04:15:41;101168.94;;;9.34;76.40
57192;BME280;43052;52.588;13.396;2023-03-20T04:18:14;101171.56;;;9.34;76.56
57192;BME280;43052;52.588;13.396;2023-03-20T04:20:41;101165.50;;;9.38;76.40
57192;BME280;43052;52.588;13.396;2023-03-20T04:23:06;101162.84;;;9.37;76.25
57192;BME280;43052;52.588;13.396;2023-03-20T04:25:31;101167.22;;;9.36;76.03
57192;BME280;43052;52.588;13.396;2023-03-20T04:27:57;101177.69;;;9.41;76.06
57192;BME280;43052;52.588;13.396;2023-03-20T04:30:22;101175.94;;;9.40;76.06
57192;BME280;43052;52.588;13.396;2023-03-20T04:32:47;101176.81;;;9.40;76.22
57192;BME280;43052;52.588;13.396;2023-03-20T04:35:13;101178.56;;;9.40;76.39
57192;BME280;43052;52.588;13.396;2023-03-20T04:37:38;101183.78;;;9.38;76.17
57192;BME280;43052;52.588;13.396;2023-03-20T04:40:04;101179.41;;;9.40;76.54
57192;BME280;43052;52.588;13.396;2023-03-20T04:42:29;101184.63;;;9.40;76.43
57192;BME280;43052;52.588;13.396;2023-03-20T04:44:54;101186.38;;;9.41;76.30
57192;BME280;43052;52.588;13.396;2023-03-20T04:47:19;101179.44;;;9.44;76.36
57192;BME280;43052;52.588;13.396;2023-03-20T04:49:45;101183.81;;;9.45;76.24
57192;BME280;43052;52.588;13.396;2023-03-20T04:52:10;101179.41;;;9.40;76.55
57192;BME280;43052;52.588;13.396;2023-03-20T04:54:35;101187.22;;;9.34;76.44
57192;BME280;43052;52.588;13.396;2023-03-20T04:57:00;101183.72;;;9.32;76.54
57192;BME280;43052;52.588;13.396;2023-03-20T04:59:26;101190.66;;;9.30;76.98
57192;BME280;43052;52.588;13.396;2023-03-20T05:01:51;101188.06;;;9.32;77.12
57192;BME280;43052;52.588;13.396;2023-03-20T05:04:16;101182.84;;;9.32;76.95
57192;BME280;43052;52.588;13.396;2023-03-20T05:06:42;101189.81;;;9.36;76.94
57192;BME280;43052;52.588;13.396;2023-03-20T05:09:08;101189.00;;;9.41;77.32
57192;BME280;43052;52.588;13.396;2023-03-20T05:11:33;101189.03;;;9.46;76.93
57192;BME280;43052;52.588;13.396;2023-03-20T05:13:59;101188.13;;;9.44;77.18
57192;BME280;43052;52.588;13.396;2023-03-20T05:16:24;101181.16;;;9.38;77.07
57192;BME280;43052;52.588;13.396;2023-03-20T05:18:50;101188.97;;;9.35;77.38
57192;BME280;43052;52.588;13.396;2023-03-20T05:21:15;101189.84;;;9.37;77.30
57192;BME280;43052;52.588;13.396;2023-03-20T05:23:40;101189.88;;;9.44;77.60
57192;BME280;43052;52.588;13.396;2023-03-20T05:26:05;101183.81;;;9.48;77.52
57192;BME280;43052;52.588;13.396;2023-03-20T05:28:31;101182.94;;;9.49;77.13
57192;BME280;43052;52.588;13.396;2023-03-20T05:30:57;101183.81;;;9.46;77.22
57192;BME280;43052;52.588;13.396;2023-03-20T05:33:22;101187.31;;;9.47;77.48
57192;BME280;43052;52.588;13.396;2023-03-20T05:35:47;101186.44;;;9.49;77.52
57192;BME280;43052;52.588;13.396;2023-03-20T05:38:12;101184.72;;;9.53;77.32
57192;BME280;43052;52.588;13.396;2023-03-20T05:40:38;101181.25;;;9.60;77.31
57192;BME280;43052;52.588;13.396;2023-03-20T05:43:03;101178.69;;;9.63;77.12
57192;BME280;43052;52.588;13.396;2023-03-20T05:45:28;101194.38;;;9.69;76.85
57192;BME280;43052;52.588;13.396;2023-03-20T05:47:53;101188.31;;;9.74;76.91
57192;BME280;43052;52.588;13.396;2023-03-20T05:50:19;101186.56;;;9.76;76.73
57192;BME280;43052;52.588;13.396;2023-03-20T05:52:46;101190.06;;;9.78;76.71
57192;BME280;43052;52.588;13.396;2023-03-20T05:55:12;101192.66;;;9.79;76.47
57192;BME280;43052;52.588;13.396;2023-03-20T05:57:38;101191.84;;;9.82;76.73
57192;BME280;43052;52.588;13.396;2023-03-20T06:00:03;101193.56;;;9.84;76.90
57192;BME280;43052;52.588;13.396;2023-03-20T06:02:29;101195.34;;;9.90;76.91
57192;BME280;43052;52.588;13.396;2023-03-20T06:04:55;101195.38;;;9.99;76.81
57192;BME280;43052;52.588;13.396;2023-03-20T06:07:20;101194.53;;;10.08;76.62
57192;BME280;43052;52.588;13.396;2023-03-20T06:09:45;101205.91;;;10.19;76.63
57192;BME280;43052;52.588;13.396;2023-03-20T06:12:11;101205.91;;;10.26;76.57
57192;BME280;43052;52.588;13.396;2023-03-20T06:14:36;101223.38;;;10.30;76.82
57192;BME280;43052;52.588;13.396;2023-03-20T06:17:02;101213.78;;;10.30;76.85
57192;BME280;43052;52.588;13.396;2023-03-20T06:19:27;101227.69;;;10.29;76.84
57192;BME280;43052;52.588;13.396;2023-03-20T06:21:52;101232.03;;;10.27;76.73
57192;BME280;43052;52.588;13.396;2023-03-20T06:24:17;101238.13;;;10.18;76.81
57192;BME280;43052;52.588;13.396;2023-03-20T06:26:43;101241.59;;;10.13;76.88
57192;BME280;43052;52.588;13.396;2023-03-20T06:29:08;101245.94;;;10.09;77.20
57192;BME280;43052;52.588;13.396;2023-03-20T06:31:33;101248.53;;;10.03;76.96
57192;BME280;43052;52.588;13.396;2023-03-20T06:33:58;101245.03;;;10.02;77.17
57192;BME280;43052;52.588;13.396;2023-03-20T06:36:25;101258.09;;;9.99;76.92
57192;BME280;43052;52.588;13.396;2023-03-20T06:38:50;101258.03;;;9.93;77.17
57192;BME280;43052;52.588;13.396;2023-03-20T06:41:16;101258.00;;;9.84;77.09
57192;BME280;43052;52.588;13.396;2023-03-20T06:43:41;101256.22;;;9.77;77.31
57192;BME280;43052;52.588;13.396;2023-03-20T06:46:09;101259.66;;;9.68;77.56
57192;BME280;43052;52.588;13.396;2023-03-20T06:48:34;101275.31;;;9.66;77.32
57192;BME280;43052;52.588;13.396;2023-03-20T06:51:00;101265.69;;;9.57;77.33
57192;BME280;43052;52.588;13.396;2023-03-20T06:53:25;101269.13;;;9.52;77.57
57192;BME280;43052;52.588;13.396;2023-03-20T06:55:51;101269.16;;;9.56;77.49
57192;BME280;43052;52.588;13.396;2023-03-20T06:58:17;101276.13;;;9.57;77.64
57192;BME280;43052;52.588;13.396;2023-03-20T07:00:42;101269.19;;;9.60;77.55
57192;BME280;43052;52.588;13.396;2023-03-20T07:03:08;101271.81;;;9.60;77.72
57192;BME280;43052;52.588;13.396;2023-03-20T07:05:34;101270.06;;;9.65;77.36
57192;BME280;43052;52.588;13.396;2023-03-20T07:07:59;101277.06;;;9.67;77.48
57192;BME280;43052;52.588;13.396;2023-03-20T07:10:25;101288.38;;;9.71;77.50
57192;BME280;43052;52.588;13.396;2023-03-20T07:12:50;101290.13;;;9.72;77.41
57192;BME280;43052;52.588;13.396;2023-03-20T07:15:18;101291.84;;;9.64;77.18
57192;BME280;43052;52.588;13.396;2023-03-20T07:17:44;101293.56;;;9.59;77.31
57192;BME280;43052;52.588;13.396;2023-03-20T07:20:10;101294.41;;;9.59;77.28
57192;BME280;43052;52.588;13.396;2023-03-20T07:22:36;101285.72;;;9.59;77.39
57192;BME280;43052;52.588;13.396;2023-03-20T07:25:01;101296.16;;;9.59;77.21
57192;BME280;43052;52.588;13.396;2023-03-20T07:27:26;101302.28;;;9.62;77.05
57192;BME280;43052;52.588;13.396;2023-03-20T07:29:52;101302.25;;;9.59;77.20
57192;BME280;43052;52.588;13.396;2023-03-20T07:32:17;101303.94;;;9.51;77.12
57192;BME280;43052;52.588;13.396;2023-03-20T07:34:43;101303.84;;;9.41;77.24
57192;BME280;43052;52.588;13.396;2023-03-20T07:37:08;101306.50;;;9.45;77.29
57192;BME280;43052;52.588;13.396;2023-03-20T07:39:34;101305.69;;;9.52;77.24
57192;BME280;43052;52.588;13.396;2023-03-20T07:42:00;101308.31;;;9.56;77.07
57192;BME280;43052;52.588;13.396;2023-03-20T07:44:25;101311.84;;;9.65;76.75
57192;BME280;43052;52.588;13.396;2023-03-20T07:46:50;101320.59;;;9.70;76.83
57192;BME280;43052;52.588;13.396;2023-03-20T07:49:16;101320.63;;;9.71;77.00
57192;BME280;43052;52.588;13.396;2023-03-20T07:51:45;101318.00;;;9.71;76.66
57192;BME280;43052;52.588;13.396;2023-03-20T07:54:11;101312.78;;;9.75;76.56
57192;BME280;43052;52.588;13.396;2023-03-20T07:56:37;101305.91;;;9.87;76.66
57192;BME280;43052;52.588;13.396;2023-03-20T07:59:02;101307.72;;;10.02;76.32
57192;BME280;43052;52.588;13.396;2023-03-20T08:01:29;101303.47;;;10.20;76.04
57192;BME280;43052;52.588;13.396;2023-03-20T08:03:54;101304.47;;;10.47;75.72
57192;BME280;43052;52.588;13.396;2023-03-20T08:06:19;101305.44;;;10.85;75.31
57192;BME280;43052;52.588;13.396;2023-03-20T08:08:45;101308.97;;;11.11;74.79
57192;BME280;43052;52.588;13.396;2023-03-20T08:11:10;101295.06;;;11.28;74.08
57192;BME280;43052;52.588;13.396;2023-03-20T08:13:36;101302.03;;;11.41;73.64
57192;BME280;43052;52.588;13.396;2023-03-20T08:16:02;101308.13;;;11.45;73.20
57192;BME280;43052;52.588;13.396;2023-03-20T08:18:27;101320.34;;;11.43;73.10
57192;BME280;43052;52.588;13.396;2023-03-20T08:20:53;101327.31;;;11.35;72.61
57192;BME280;43052;52.588;13.396;2023-03-20T08:23:18;101330.81;;;11.18;72.21
57192;BME280;43052;52.588;13.396;2023-03-20T08:25:50;101326.41;;;10.98;72.53
57192;BME280;43052;52.588;13.396;2023-03-20T08:28:17;101325.53;;;10.87;72.52
57192;BME280;43052;52.588;13.396;2023-03-20T08:30:42;101323.78;;;10.81;72.52
57192;BME280;43052;52.588;13.396;2023-03-20T08:33:07;101335.13;;;10.97;72.45
57192;BME280;43052;52.588;13.396;2023-03-20T08:35:33;101329.06;;;11.14;72.29
57192;BME280;43052;52.588;13.396;2023-03-20T08:37:58;101323.84;;;11.47;72.02
57192;BME280;43052;52.588;13.396;2023-03-20T08:40:24;101314.19;;;11.89;70.78
57192;BME280;43052;52.588;13.396;2023-03-20T08:42:49;101314.88;;;12.54;69.86
57192;BME280;43052;52.588;13.396;2023-03-20T08:45:14;101307.34;;;13.32;68.39
57192;BME280;43052;52.588;13.396;2023-03-20T08:47:41;101309.56;;;13.81;66.87
57192;BME280;43052;52.588;13.396;2023-03-20T08:50:06;101311.81;;;14.16;65.84
57192;BME280;43052;52.588;13.396;2023-03-20T08:52:32;101307.72;;;14.62;64.09
57192;BME280;43052;52.588;13.396;2023-03-20T08:54:57;101312.06;;;15.79;62.22
57192;BME280;43052;52.588;13.396;2023-03-20T08:57:23;101302.75;;;18.58;55.73
57192;BME280;43052;52.588;13.396;2023-03-20T08:59:48;101298.72;;;20.31;50.52
57192;BME280;43052;52.588;13.396;2023-03-20T09:02:13;101295.81;;;19.90;50.24
57192;BME280;43052;52.588;13.396;2023-03-20T09:04:38;101301.44;;;19.01;49.83
57192;BME280;43052;52.588;13.396;2023-03-20T09:07:03;101294.03;;;18.83;49.68
57192;BME280;43052;52.588;13.396;2023-03-20T09:09:29;101309.09;;;18.52;49.98
57192;BME280;43052;52.588;13.396;2023-03-20T09:11:55;101304.44;;;19.17;49.84
57192;BME280;43052;52.588;13.396;2023-03-20T09:14:22;101294.06;;;21.06;45.44
57192;BME280;43052;52.588;13.396;2023-03-20T09:16:48;101291.44;;;21.26;43.52
57192;BME280;43052;52.588;13.396;2023-03-20T09:19:13;101287.91;;;20.59;44.15
57192;BME280;43052;52.588;13.396;2023-03-20T09:21:39;101296.19;;;20.04;44.03
57192;BME280;43052;52.588;13.396;2023-03-20T09:24:04;101300.66;;;18.98;45.19
57192;BME280;43052;52.588;13.396;2023-03-20T09:26:29;101303.06;;;17.84;47.42
57192;BME280;43052;52.588;13.396;2023-03-20T09:28:55;101297.97;;;17.07;49.57
57192;BME280;43052;52.588;13.396;2023-03-20T09:31:20;101306.16;;;16.55;50.00
57192;BME280;43052;52.588;13.396;2023-03-20T09:33:47;101307.72;;;16.23;50.96
57192;BME280;43052;52.588;13.396;2023-03-20T09:36:12;101313.53;;;15.95;51.10
57192;BME280;43052;52.588;13.396;2023-03-20T09:38:37;101303.50;;;15.66;52.35
57192;BME280;43052;52.588;13.396;2023-03-20T09:41:06;101307.91;;;15.65;52.27
57192;BME280;43052;52.588;13.396;2023-03-20T09:44:09;101307.09;;;15.62;52.39
57192;BME280;43052;52.588;13.396;2023-03-20T09:52:26;101302.69;;;15.11;51.97
57192;BME280;43052;52.588;13.396;2023-03-20T09:54:57;101306.25;;;15.07;52.35
57192;BME280;43052;52.588;13.396;2023-03-20T09:57:28;101316.03;;;14.98;52.11
57192;BME280;43052;52.588;13.396;2023-03-20T09:59:58;101318.94;;;14.80;52.48
57192;BME280;43052;52.588;13.396;2023-03-20T10:08:15;101318.69;;;14.28;53.26
57192;BME280;43052;52.588;13.396;2023-03-20T10:13:50;101322.81;;;13.70;54.34
57192;BME280;43052;52.588;13.396;2023-03-20T10:19:30;101322.91;;;13.60;55.56
57192;BME280;43052;52.588;13.396;2023-03-20T10:24:39;101329.84;;;13.69;55.23
57192;BME280;43052;52.588;13.396;2023-03-20T10:27:16;101326.44;;;13.61;55.10
57192;BME280;43052;52.588;13.396;2023-03-20T10:29:53;101323.84;;;13.55;55.73
57192;BME280;43052;52.588;13.396;2023-03-20T10:32:34;101325.59;;;13.54;55.79
57192;BME280;43052;52.588;13.396;2023-03-20T10:35:16;101324.59;;;13.69;55.71
57192;BME280;43052;52.588;13.396;2023-03-20T10:37:58;101322.72;;;13.81;55.44
57192;BME280;43052;52.588;13.396;2023-03-20T10:40:32;101312.56;;;14.26;54.84
57192;BME280;43052;52.588;13.396;2023-03-20T10:43:02;101308.59;;;14.67;53.67
57192;BME280;43052;52.588;13.396;2023-03-20T10:48:18;101305.31;;;15.11;52.51
57192;BME280;43052;52.588;13.396;2023-03-20T10:50:52;101295.97;;;15.46;52.14
57192;BME280;43052;52.588;13.396;2023-03-20T10:53:27;101301.97;;;15.54;50.93
57192;BME280;43052;52.588;13.396;2023-03-20T10:55:56;101311.22;;;15.25;51.29
57192;BME280;43052;52.588;13.396;2023-03-20T10:58:25;101307.00;;;15.15;51.46
57192;BME280;43052;52.588;13.396;2023-03-20T11:00:54;101303.78;;;14.94;51.62
57192;BME280;43052;52.588;13.396;2023-03-20T11:03:29;101308.31;;;14.87;52.10
57192;BME280;43052;52.588;13.396;2023-03-20T11:06:20;101307.34;;;14.93;52.23
57192;BME280;43052;52.588;13.396;2023-03-20T11:08:49;101303.97;;;14.83;52.11
57192;BME280;43052;52.588;13.396;2023-03-20T11:11:21;101294.50;;;14.70;52.59
57192;BME280;43052;52.588;13.396;2023-03-20T11:13:46;101298.16;;;14.58;52.46
57192;BME280;43052;52.588;13.396;2023-03-20T11:16:23;101300.03;;;14.48;52.51
57192;BME280;43052;52.588;13.396;2023-03-20T11:18:50;101305.22;;;14.53;52.47
57192;BME280;43052;52.588;13.396;2023-03-20T11:21:19;101310.50;;;14.51;52.52
57192;BME280;43052;52.588;13.396;2023-03-20T11:23:46;101295.78;;;14.36;52.59
57192;BME280;43052;52.588;13.396;2023-03-20T11:26:16;101304.72;;;14.24;53.03
57192;BME280;43052;52.588;13.396;2023-03-20T11:28:49;101300.56;;;14.03;53.21
57192;BME280;43052;52.588;13.396;2023-03-20T11:31:18;101299.06;;;13.82;53.76
57192;BME280;43052;52.588;13.396;2023-03-20T11:33:59;101300.00;;;13.76;53.78
57192;BME280;43052;52.588;13.396;2023-03-20T11:36:27;101303.44;;;13.83;53.94
57192;BME280;43052;52.588;13.396;2023-03-20T11:39:23;101302.44;;;13.95;53.88
57192;BME280;43052;52.588;13.396;2023-03-20T11:41:55;101297.00;;;14.10;53.88
57192;BME280;43052;52.588;13.396;2023-03-20T11:44:29;101298.91;;;13.94;53.82
57192;BME280;43052;52.588;13.396;2023-03-20T11:46:56;101298.13;;;13.88;53.97
57192;BME280;43052;52.588;13.396;2023-03-20T11:49:24;101292.06;;;13.81;54.13
57192;BME280;43052;52.588;13.396;2023-03-20T11:51:52;101287.00;;;13.61;54.54
57192;BME280;43052;52.588;13.396;2023-03-20T11:54:19;101280.97;;;13.50;54.72
57192;BME280;43052;52.588;13.396;2023-03-20T11:56:57;101277.47;;;13.49;55.06
57192;BME280;43052;52.588;13.396;2023-03-20T11:59:31;101270.50;;;13.48;55.41
57192;BME280;43052;52.588;13.396;2023-03-20T12:01:58;101281.69;;;13.64;55.18
57192;BME280;43052;52.588;13.396;2023-03-20T12:04:35;101273.44;;;14.01;54.51
57192;BME280;43052;52.588;13.396;2023-03-20T12:07:28;101276.75;;;14.16;54.19
57192;BME280;43052;52.588;13.396;2023-03-20T12:09:57;101279.44;;;14.13;54.14
57192;BME280;43052;52.588;13.396;2023-03-20T12:12:37;101270.13;;;13.84;54.64
57192;BME280;43052;52.588;13.396;2023-03-20T12:15:20;101269.44;;;13.66;54.80
57192;BME280;43052;52.588;13.396;2023-03-20T12:20:40;101261.00;;;13.28;55.26
57192;BME280;43052;52.588;13.396;2023-03-20T12:23:12;101262.69;;;13.34;55.18
57192;BME280;43052;52.588;13.396;2023-03-20T12:25:58;101264.25;;;13.57;55.42
57192;BME280;43052;52.588;13.396;2023-03-20T12:28:32;101262.50;;;13.59;55.33
57192;BME280;43052;52.588;13.396;2023-03-20T12:33:42;101250.31;;;13.52;55.58
57192;BME280;43052;52.588;13.396;2023-03-20T12:36:25;101265.84;;;13.75;55.24
57192;BME280;43052;52.588;13.396;2023-03-20T12:38:53;101258.66;;;13.92;55.19
57192;BME280;43052;52.588;13.396;2023-03-20T12:41:23;101252.59;;;13.83;55.08
57192;BME280;43052;52.588;13.396;2023-03-20T12:44:21;101252.84;;;13.61;55.24
57192;BME280;43052;52.588;13.396;2023-03-20T12:47:05;101250.34;;;13.45;55.54
57192;BME280;43052;52.588;13.396;2023-03-20T12:49:46;101246.91;;;13.36;55.75
57192;BME280;43052;52.588;13.396;2023-03-20T12:52:27;101251.34;;;13.29;56.12
57192;BME280;43052;52.588;13.396;2023-03-20T13:00:40;101241.03;;;13.09;56.35
57192;BME280;43052;52.588;13.396;2023-03-20T13:08:42;101231.31;;;13.20;56.37
57192;BME280;43052;52.588;13.396;2023-03-20T13:11:30;101236.34;;;13.48;55.82
57192;BME280;43052;52.588;13.396;2023-03-20T13:14:03;101232.47;;;13.82;55.52
57192;BME280;43052;52.588;13.396;2023-03-20T13:16:44;101227.09;;;13.91;54.96
57192;BME280;43052;52.588;13.396;2023-03-20T13:19:28;101232.72;;;14.32;54.72
57192;BME280;43052;52.588;13.396;2023-03-20T13:22:21;101232.25;;;14.67;54.02
57192;BME280;43052;52.588;13.396;2023-03-20T13:25:01;101231.13;;;14.82;53.58
57192;BME280;43052;52.588;13.396;2023-03-20T13:27:35;101227.50;;;14.91;53.12
57192;BME280;43052;52.588;13.396;2023-03-20T13:30:25;101215.09;;;14.98;53.11
57192;BME280;43052;52.588;13.396;2023-03-20T13:33:49;101217.16;;;15.30;53.25
57192;BME280;43052;52.588;13.396;2023-03-20T13:36:29;101216.09;;;15.41;52.24
57192;BME280;43052;52.588;13.396;2023-03-20T13:39:05;101208.44;;;15.28;51.85
57192;BME280;43052;52.588;13.396;2023-03-20T13:41:35;101219.13;;;15.19;52.17
57192;BME280;43052;52.588;13.396;2023-03-20T13:44:02;101216.97;;;14.91;52.37
57192;BME280;43052;52.588;13.396;2023-03-20T13:46:50;101218.25;;;14.62;52.51
57192;BME280;43052;52.588;13.396;2023-03-20T13:49:38;101214.38;;;14.27;52.94
57192;BME280;43052;52.588;13.396;2023-03-20T13:52:15;101212.16;;;13.96;53.51
57192;BME280;43052;52.588;13.396;2023-03-20T13:54:52;101212.09;;;14.01;53.68
57192;BME280;43052;52.588;13.396;2023-03-20T14:05:25;101209.91;;;13.63;54.58
57192;BME280;43052;52.588;13.396;2023-03-20T14:07:56;101219.78;;;13.35;54.95